Time;durP1;ratioP1;P1;durP2;ratioP2;P2;SDS_P1;SDS_P2;PMS_P1;PMS_P2;Temp;Humidity;BMP_temperature;BMP_pressure;BME280_temperature;BME280_humidity;BME280_pressure;Samples;Min_cycle;Max_cycle;Signal;HPM_P1;HPM_P2
2020/12/27 00:01:33;;;;;;;1.58;1.00;;;2.50;1.00;;;;;;5073469;28;20328;-76
2020/12/27 00:17:45;;;;;;;0.90;0.90;;;2.40;1.00;;;;;;5085660;28;20186;-77
2020/12/27 00:20:39;;;;;;;0.80;0.73;;;2.40;1.00;;;;;;5081949;28;20177;-77
2020/12/27 00:23:05;;;;;;;1.05;0.88;;;2.30;1.00;;;;;;5084415;28;20187;-75
2020/12/27 00:25:32;;;;;;;1.47;0.83;;;2.30;1.00;;;;;;5074642;28;20602;-75
2020/12/27 00:28:03;;;;;;;7.07;1.90;;;2.30;1.00;;;;;;5074215;28;20164;-77
2020/12/27 00:33:51;;;;;;;1.50;1.05;;;2.30;1.00;;;;;;5074231;28;20677;-77
2020/12/27 00:36:18;;;;;;;4.57;1.27;;;2.20;1.00;;;;;;5074464;28;20175;-77
2020/12/27 00:39:21;;;;;;;1.42;1.33;;;2.20;1.00;;;;;;5074066;28;20172;-77
2020/12/27 00:45:09;;;;;;;1.77;1.00;;;2.10;1.00;;;;;;5074064;28;20629;-76
2020/12/27 00:47:39;;;;;;;0.63;0.60;;;2.10;1.00;;;;;;5073913;28;20258;-75
2020/12/27 00:50:09;;;;;;;1.17;1.08;;;2.10;1.00;;;;;;5074218;28;20514;-75
2020/12/27 00:52:39;;;;;;;0.85;0.85;;;2.10;1.00;;;;;;5074472;28;20618;-75
2020/12/27 00:55:05;;;;;;;2.88;1.58;;;2.20;1.00;;;;;;5079889;28;20202;-76
2020/12/27 00:58:21;;;;;;;0.93;0.93;;;2.20;1.00;;;;;;5073760;28;20180;-77
2020/12/27 01:01:03;;;;;;;1.45;1.33;;;2.10;1.00;;;;;;5074870;28;20258;-77
2020/12/27 01:04:09;;;;;;;4.70;1.77;;;2.20;1.00;;;;;;5073381;28;20213;-76
2020/12/27 01:06:37;;;;;;;1.63;0.98;;;2.20;1.00;;;;;;5074374;28;20233;-77
2020/12/27 01:09:21;;;;;;;1.17;0.90;;;2.20;1.00;;;;;;5074206;28;20555;-77
2020/12/27 01:12:33;;;;;;;11.57;0.70;;;2.20;1.00;;;;;;5073746;28;20167;-77
2020/12/27 01:18:21;;;;;;;3.17;1.50;;;2.10;1.00;;;;;;5073870;28;20178;-77
2020/12/27 01:20:52;;;;;;;1.50;0.97;;;2.10;1.00;;;;;;5074002;28;20164;-77
2020/12/27 01:23:45;;;;;;;1.60;1.10;;;2.10;1.00;;;;;;5074338;28;20410;-77
2020/12/27 01:26:16;;;;;;;5.10;1.23;;;2.10;1.00;;;;;;5073721;28;20171;-77
2020/12/27 01:28:41;;;;;;;2.45;1.30;;;2.10;1.00;;;;;;5082372;28;20163;-75
2020/12/27 01:31:27;;;;;;;1.87;1.37;;;2.10;1.00;;;;;;5094015;28;20158;-75
2020/12/27 01:33:57;;;;;;;2.25;1.10;;;2.10;1.00;;;;;;5088025;28;20171;-75
2020/12/27 01:37:03;;;;;;;10.93;1.38;;;2.10;1.00;;;;;;5074058;28;20563;-77
2020/12/27 01:39:39;;;;;;;1.20;1.10;;;2.20;1.00;;;;;;5081332;28;20181;-77
2020/12/27 01:42:09;;;;;;;7.90;1.80;;;2.10;1.00;;;;;;5074356;28;20190;-75
2020/12/27 01:51:57;;;;;;;0.95;0.82;;;2.10;1.00;;;;;;5073842;28;20248;-76
2020/12/27 01:54:23;;;;;;;1.17;1.02;;;2.10;1.00;;;;;;5073384;28;20175;-75
2020/12/27 01:56:56;;;;;;;1.10;1.00;;;2.10;1.00;;;;;;5091988;28;20204;-74
2020/12/27 01:59:27;;;;;;;1.25;1.00;;;2.10;1.00;;;;;;5092144;28;20162;-77
2020/12/27 02:02:04;;;;;;;2.00;1.58;;;2.10;1.00;;;;;;5084631;28;20229;-75
2020/12/27 02:04:51;;;;;;;1.10;1.10;;;2.00;1.00;;;;;;5072841;28;20190;-77
2020/12/27 02:07:27;;;;;;;2.13;1.10;;;2.00;1.00;;;;;;5081285;28;20163;-77
2020/12/27 02:09:54;;;;;;;1.35;1.30;;;2.10;1.00;;;;;;5077574;28;20166;-76
2020/12/27 02:12:25;;;;;;;1.50;0.80;;;2.00;1.00;;;;;;5091274;28;20166;-75
2020/12/27 02:14:53;;;;;;;1.92;1.17;;;2.10;1.00;;;;;;5086170;28;20190;-77
2020/12/27 02:18:03;;;;;;;2.15;1.08;;;2.00;1.00;;;;;;5076679;28;20677;-77
2020/12/27 02:21:03;;;;;;;1.02;1.02;;;2.00;1.00;;;;;;5076777;28;20159;-77
2020/12/27 02:23:40;;;;;;;1.08;0.90;;;2.10;1.00;;;;;;5082141;28;20526;-75
2020/12/27 02:26:10;;;;;;;1.02;0.47;;;2.10;1.00;;;;;;5092065;28;20213;-77
2020/12/27 02:28:45;;;;;;;2.42;1.15;;;2.20;1.00;;;;;;5076554;28;20628;-77
2020/12/27 02:31:11;;;;;;;1.77;1.67;;;2.20;1.00;;;;;;5076459;28;20163;-78
2020/12/27 02:33:37;;;;;;;1.20;1.00;;;;;;;;;;5078704;28;20167;-74
2020/12/27 02:36:33;;;;;;;1.65;1.50;;;2.10;1.00;;;;;;5081179;28;20429;-78
2020/12/27 02:39:11;;;;;;;2.05;0.93;;;2.10;1.00;;;;;;5076378;28;20254;-76
2020/12/27 02:41:40;;;;;;;2.97;0.90;;;2.20;1.00;;;;;;5096453;28;20520;-75
2020/12/27 02:44:10;;;;;;;1.25;1.15;;;2.10;1.00;;;;;;5095537;28;20557;-75
2020/12/27 02:49:57;;;;;;;4.63;1.45;;;2.10;1.00;;;;;;5095879;28;20256;-78
2020/12/27 02:52:45;;;;;;;1.20;1.20;;;2.10;1.00;;;;;;5077673;28;20180;-75
2020/12/27 02:55:11;;;;;;;2.17;1.60;;;2.00;1.00;;;;;;5076110;28;20195;-75
2020/12/27 02:57:39;;;;;;;2.43;1.30;;;2.00;1.00;;;;;;5076506;28;20198;-75
2020/12/27 03:00:10;;;;;;;1.25;1.13;;;1.90;1.00;;;;;;5085542;28;20174;-77
2020/12/27 03:02:39;;;;;;;2.35;1.58;;;1.90;1.00;;;;;;5094152;28;20549;-75
2020/12/27 03:05:10;;;;;;;0.90;0.90;;;1.90;1.00;;;;;;5081620;28;20293;-75
2020/12/27 03:07:51;;;;;;;1.38;1.27;;;1.90;1.00;;;;;;5076266;28;20163;-77
2020/12/27 03:10:39;;;;;;;1.95;1.80;;;1.90;1.00;;;;;;5075777;28;20171;-77
2020/12/27 03:13:51;;;;;;;1.08;0.85;;;1.70;1.00;;;;;;5075922;28;20205;-78
2020/12/27 03:16:39;;;;;;;3.53;1.27;;;1.70;1.00;;;;;;5085229;28;20245;-77
2020/12/27 03:25:42;;;;;;;1.85;1.50;;;1.50;1.00;;;;;;5092278;28;20189;-75
2020/12/27 03:28:09;;;;;;;1.20;1.10;;;1.60;1.00;;;;;;5095919;28;20161;-76
2020/12/27 03:30:40;;;;;;;2.10;1.80;;;1.50;1.00;;;;;;5095888;28;20283;-75
2020/12/27 03:33:22;;;;;;;1.70;1.15;;;1.50;1.00;;;;;;5075359;28;20199;-77
2020/12/27 03:36:04;;;;;;;2.67;1.58;;;1.50;1.00;;;;;;5075049;28;20693;-77
2020/12/27 03:38:46;;;;;;;3.67;1.50;;;1.40;1.00;;;;;;5075712;28;20630;-75
2020/12/27 03:41:15;;;;;;;0.80;0.77;;;1.40;1.00;;;;;;5074928;28;20183;-77
2020/12/27 03:44:15;;;;;;;0.93;0.90;;;1.40;1.00;;;;;;5075052;28;20238;-77
2020/12/27 03:46:42;;;;;;;3.95;2.05;;;1.40;1.00;;;;;;5089818;28;20637;-75
2020/12/27 03:49:16;;;;;;;2.20;1.53;;;1.30;1.00;;;;;;5089354;28;20211;-75
2020/12/27 03:51:46;;;;;;;7.20;1.10;;;1.30;1.00;;;;;;5095274;28;20520;-75
2020/12/27 03:54:12;;;;;;;2.65;2.03;;;1.30;1.00;;;;;;5095647;28;20166;-75
2020/12/27 03:56:51;;;;;;;4.13;1.80;;;1.30;1.00;;;;;;5095423;28;20182;-75
2020/12/27 04:02:39;;;;;;;1.70;1.60;;;1.30;1.00;;;;;;5093466;28;20251;-78
2020/12/27 04:05:10;;;;;;;1.60;1.50;;;1.30;1.00;;;;;;5079708;28;20175;-77
2020/12/27 04:07:46;;;;;;;2.70;1.60;;;1.30;1.00;;;;;;5074647;28;20216;-75
2020/12/27 04:10:11;;;;;;;2.25;1.67;;;1.30;1.00;;;;;;5094891;28;20198;-75
2020/12/27 04:12:40;;;;;;;2.00;1.50;;;1.30;1.00;;;;;;5082027;28;20211;-75
2020/12/27 04:15:10;;;;;;;3.03;1.30;;;1.30;1.00;;;;;;5077928;28;20272;-75
2020/12/27 04:17:35;;;;;;;2.60;1.45;;;1.20;1.00;;;;;;5090014;28;20197;-75
2020/12/27 04:20:01;;;;;;;2.33;1.50;;;1.20;1.00;;;;;;5092991;28;20194;-75
2020/12/27 04:22:27;;;;;;;2.30;1.50;;;;;;;;;;5083637;28;20210;-75
2020/12/27 04:25:04;;;;;;;7.25;1.63;;;1.20;1.00;;;;;;5073968;28;20402;-75
2020/12/27 04:27:40;;;;;;;1.30;1.20;;;1.20;1.00;;;;;;5084830;28;20296;-77
2020/12/27 04:30:22;;;;;;;2.47;1.83;;;1.20;1.00;;;;;;5073629;28;20244;-77
2020/12/27 04:32:58;;;;;;;1.23;0.90;;;1.20;1.00;;;;;;5074457;28;20171;-77
2020/12/27 04:35:45;;;;;;;7.18;1.60;;;1.20;1.00;;;;;;5073977;28;20177;-75
2020/12/27 04:41:34;;;;;;;1.25;1.08;;;1.30;1.00;;;;;;5094304;28;20208;-76
2020/12/27 04:44:16;;;;;;;0.77;0.77;;;1.30;1.00;;;;;;5074109;28;20164;-76
2020/12/27 04:50:24;;;;;;;2.63;2.08;;;1.30;1.00;;;;;;5073861;28;20182;-78
2020/12/27 04:56:15;;;;;;;1.75;1.35;;;1.30;1.00;;;;;;5073701;28;20198;-75
2020/12/27 04:58:41;;;;;;;1.67;1.23;;;1.30;1.00;;;;;;5073955;28;20147;-75
2020/12/27 05:01:10;;;;;;;1.67;1.10;;;1.30;1.00;;;;;;5081950;28;20228;-75
2020/12/27 05:06:58;;;;;;;1.70;1.35;;;1.20;1.00;;;;;;5087646;28;20751;-75
2020/12/27 05:09:25;;;;;;;1.77;1.02;;;1.30;1.00;;;;;;5078402;28;20182;-75
2020/12/27 05:11:52;;;;;;;1.85;0.82;;;1.30;1.00;;;;;;5075988;28;20167;-75
2020/12/27 05:14:29;;;;;;;1.70;1.40;;;1.30;1.00;;;;;;5077555;28;20574;-77
2020/12/27 05:16:56;;;;;;;4.75;2.08;;;1.30;1.00;;;;;;5084039;28;20186;-75
2020/12/27 05:19:23;;;;;;;3.85;1.58;;;1.30;1.00;;;;;;5076078;28;20194;-75
2020/12/27 05:22:24;;;;;;;2.35;1.02;;;1.30;1.00;;;;;;5073461;28;20232;-75
2020/12/27 05:24:52;;;;;;;1.88;1.20;;;1.40;1.00;;;;;;5031610;28;20180;-76
2020/12/27 05:27:17;;;;;;;1.15;1.15;;;1.40;1.00;;;;;;5031561;28;20578;-75
2020/12/27 05:29:46;;;;;;;1.90;1.65;;;1.40;1.00;;;;;;5031529;28;20161;-75
2020/12/27 05:32:16;;;;;;;0.80;0.80;;;1.50;1.00;;;;;;5031620;28;20316;-75
2020/12/27 05:35:18;;;;;;;0.98;0.80;;;1.50;1.00;;;;;;5030728;28;20632;-75
2020/12/27 05:38:10;;;;;;;1.90;1.27;;;1.60;1.00;;;;;;5031110;28;20214;-78
2020/12/27 05:40:39;;;;;;;1.42;1.30;;;1.60;1.00;;;;;;5031191;28;20231;-75
2020/12/27 05:43:15;;;;;;;2.17;1.08;;;1.60;1.00;;;;;;5034318;28;20859;-75
2020/12/27 05:45:42;;;;;;;0.85;0.82;;;1.60;1.00;;;;;;5035264;28;20192;-76
2020/12/27 05:48:28;;;;;;;4.28;1.58;;;1.70;1.00;;;;;;5035645;28;20173;-75
2020/12/27 05:51:03;;;;;;;0.68;0.68;;;1.70;1.00;;;;;;5035528;28;20191;-76
2020/12/27 05:53:36;;;;;;;2.53;1.48;;;1.70;1.00;;;;;;5034914;28;20188;-75
2020/12/27 05:59:29;;;;;;;1.38;1.00;;;1.80;1.00;;;;;;5066886;28;20198;-77
2020/12/27 06:01:59;;;;;;;0.80;0.80;;;1.90;1.00;;;;;;5077007;28;20280;-75
2020/12/27 06:05:00;;;;;;;1.20;1.02;;;1.90;1.00;;;;;;5078474;28;20163;-77
2020/12/27 06:10:59;;;;;;;3.15;1.08;;;1.90;1.00;;;;;;5077238;28;20198;-75
2020/12/27 06:14:02;;;;;;;0.95;0.90;;;1.90;1.00;;;;;;5076788;28;20817;-78
2020/12/27 06:16:57;;;;;;;1.20;1.10;;;1.90;1.00;;;;;;5086437;28;20178;-75
2020/12/27 06:19:25;;;;;;;2.70;1.55;;;2.00;1.00;;;;;;5087686;28;20672;-75
2020/12/27 06:22:24;;;;;;;1.52;1.45;;;1.90;1.00;;;;;;5092437;28;20201;-76
2020/12/27 06:24:51;;;;;;;1.20;1.10;;;1.90;1.00;;;;;;5077052;28;20175;-77
2020/12/27 06:27:39;;;;;;;4.90;1.58;;;2.00;1.00;;;;;;5077018;28;20147;-75
2020/12/27 06:33:39;;;;;;;1.58;1.30;;;1.90;1.00;;;;;;5084132;28;20184;-77
2020/12/27 06:36:05;;;;;;;1.20;0.90;;;1.90;1.00;;;;;;5089333;28;20538;-77
2020/12/27 06:38:49;;;;;;;2.30;1.20;;;1.90;1.00;;;;;;5076666;28;20186;-77
2020/12/27 06:41:17;;;;;;;1.42;1.33;;;1.90;1.00;;;;;;5076024;28;20198;-76
2020/12/27 06:44:03;;;;;;;3.00;1.75;;;1.90;1.00;;;;;;5081773;28;20179;-79
2020/12/27 06:47:21;;;;;;;2.17;1.50;;;1.90;1.00;;;;;;5096325;28;20538;-81
2020/12/27 06:53:45;;;;;;;1.40;1.30;;;1.90;1.00;;;;;;5075527;28;20185;-78
2020/12/27 06:56:57;;;;;;;3.65;1.65;;;1.80;1.00;;;;;;5089052;28;20169;-76
2020/12/27 06:59:40;;;;;;;2.47;0.80;;;1.80;1.00;;;;;;5096821;28;20196;-77
2020/12/27 07:02:28;;;;;;;2.17;1.50;;;1.80;1.00;;;;;;5076442;28;20198;-79
2020/12/27 07:09:12;;;;;;;0.93;0.93;;;1.90;1.00;;;;;;5075482;28;20582;-80
2020/12/27 07:15:16;;;;;;;5.18;1.55;;;1.90;1.00;;;;;;5007536;28;20258;-79
2020/12/27 07:21:13;;;;;;;2.65;1.30;;;1.90;1.00;;;;;;5013845;28;20243;-79
2020/12/27 07:24:15;;;;;;;2.08;1.35;;;1.90;1.00;;;;;;5013057;28;20592;-78
2020/12/27 07:30:18;;;;;;;4.68;1.40;;;1.90;1.00;;;;;;5013445;28;20698;-78
2020/12/27 07:46:40;;;;;;;1.15;0.88;;;1.80;1.00;;;;;;5057428;28;20210;-78
2020/12/27 07:52:50;;;;;;;0.85;0.82;;;1.80;1.00;;;;;;5079859;28;20181;-78
2020/12/27 07:58:38;;;;;;;1.27;0.70;;;1.90;1.00;;;;;;5075166;28;20158;-78
2020/12/27 08:04:51;;;;;;;0.85;0.50;;;1.90;1.00;;;;;;5073510;28;20228;-78
2020/12/27 08:08:03;;;;;;;1.70;0.80;;;1.90;1.00;;;;;;5075350;28;20159;-78
2020/12/27 08:13:56;;;;;;;1.88;1.10;;;1.90;1.00;;;;;;5074718;28;20581;-78
2020/12/27 08:23:22;;;;;;;4.40;1.48;;;2.10;1.00;;;;;;5079566;28;20293;-78
2020/12/27 08:26:09;;;;;;;0.68;0.60;;;2.10;1.00;;;;;;5081927;28;20163;-78
2020/12/27 08:32:06;;;;;;;1.20;0.95;;;2.20;1.00;;;;;;5086918;28;20668;-78
2020/12/27 08:35:06;;;;;;;3.45;1.15;;;2.30;1.00;;;;;;5094256;28;20180;-78
2020/12/27 08:37:36;;;;;;;1.13;0.90;;;2.30;1.00;;;;;;5094420;28;20577;-78
2020/12/27 08:40:31;;;;;;;0.90;0.70;;;2.30;1.00;;;;;;5094706;28;20166;-78
2020/12/27 08:49:55;;;;;;;2.65;0.98;;;2.50;1.00;;;;;;5073920;28;20215;-77
2020/12/27 08:52:23;;;;;;;0.80;0.80;;;2.60;1.00;;;;;;5079571;28;20186;-77
2020/12/27 08:55:11;;;;;;;2.92;1.15;;;2.60;1.00;;;;;;5073877;28;20210;-77
2020/12/27 08:57:38;;;;;;;0.40;0.40;;;2.60;1.00;;;;;;5084012;28;20218;-78
2020/12/27 09:03:43;;;;;;;0.63;0.63;;;2.60;1.00;;;;;;5073362;28;20220;-77
2020/12/27 09:06:16;;;;;;;0.73;0.73;;;2.70;1.00;;;;;;5073967;28;20496;-77
2020/12/27 09:08:42;;;;;;;0.88;0.88;;;2.70;1.00;;;;;;5073915;28;20178;-77
2020/12/27 09:11:16;;;;;;;1.00;1.00;;;2.70;1.00;;;;;;5083673;28;20170;-79
2020/12/27 09:13:42;;;;;;;4.20;0.40;;;2.80;1.00;;;;;;5076164;28;20178;-79
2020/12/27 09:16:08;;;;;;;1.83;1.25;;;2.80;1.00;;;;;;5074694;28;20715;-81
2020/12/27 09:28:40;;;;;;;1.95;0.80;;;2.90;1.00;;;;;;5073557;28;20684;-79
2020/12/27 09:35:06;;;;;;;1.75;0.63;;;3.00;1.00;;;;;;5073227;28;20190;-81
2020/12/27 09:41:12;;;;;;;2.78;0.73;;;3.00;1.00;;;;;;5073350;28;20178;-75
2020/12/27 09:43:52;;;;;;;4.25;0.90;;;3.00;1.00;;;;;;5073857;28;20167;-76
2020/12/27 09:46:45;;;;;;;0.50;0.50;;;3.10;1.00;;;;;;5078344;28;20700;-75
2020/12/27 09:52:46;;;;;;;1.80;0.90;;;3.20;1.00;;;;;;5086937;28;20746;-79
2020/12/27 09:55:13;;;;;;;2.35;0.68;;;3.30;1.00;;;;;;5087213;28;20255;-80
2020/12/27 09:57:46;;;;;;;3.10;1.00;;;3.30;1.00;;;;;;5089045;28;20255;-81
2020/12/27 10:04:09;;;;;;;0.70;0.70;;;3.30;1.00;;;;;;5087082;28;20205;-78
2020/12/27 10:09:57;;;;;;;0.55;0.55;;;3.40;1.00;;;;;;5073366;28;20155;-78
2020/12/27 10:15:52;;;;;;;0.98;0.90;;;3.50;1.00;;;;;;5072782;28;20186;-77
2020/12/27 10:18:22;;;;;;;2.05;0.73;;;3.50;1.00;;;;;;5072916;28;20579;-76
2020/12/27 10:21:09;;;;;;;0.80;0.80;;;3.60;1.00;;;;;;5074284;28;20289;-77
2020/12/27 10:23:52;;;;;;;0.45;0.45;;;3.60;1.00;;;;;;5088128;28;20167;-79
2020/12/27 10:33:02;;;;;;;1.67;0.50;;;3.60;1.00;;;;;;5097020;28;20185;-78
2020/12/27 10:42:11;;;;;;;6.82;0.50;;;3.60;1.00;;;;;;5076516;28;20213;-75
2020/12/27 10:44:40;;;;;;;0.60;0.60;;;3.60;1.00;;;;;;5086924;28;20171;-75
2020/12/27 10:47:10;;;;;;;0.70;0.70;;;3.60;1.00;;;;;;5076533;28;20160;-75
2020/12/27 10:49:36;;;;;;;1.02;0.63;;;3.60;1.00;;;;;;5094058;28;20592;-75
2020/12/27 10:52:01;;;;;;;0.83;0.80;;;3.60;1.00;;;;;;5087682;28;20270;-75
2020/12/27 10:54:45;;;;;;;0.50;0.50;;;3.60;1.00;;;;;;5081670;28;20190;-75
2020/12/27 11:00:51;;;;;;;0.60;0.60;;;3.70;1.00;;;;;;5080044;28;20534;-79
2020/12/27 11:10:00;;;;;;;0.40;0.40;;;3.70;1.00;;;;;;5088707;28;20552;-79
2020/12/27 11:15:58;;;;;;;1.13;0.50;;;3.70;1.00;;;;;;5075786;28;20565;-77
2020/12/27 11:25:34;;;;;;;1.02;0.55;;;3.70;1.00;;;;;;5085293;28;20262;-79
2020/12/27 11:31:40;;;;;;;0.50;0.50;;;3.80;1.00;;;;;;5075325;28;20197;-80
2020/12/27 11:40:49;;;;;;;0.90;0.50;;;3.90;1.00;;;;;;5095594;28;20506;-79
2020/12/27 11:46:37;;;;;;;1.35;0.55;;;4.10;1.00;;;;;;5075117;28;20178;-79
2020/12/27 11:49:27;;;;;;;0.83;0.70;;;4.10;1.00;;;;;;5074912;28;20175;-79
2020/12/27 11:55:15;;;;;;;0.70;0.70;;;4.10;1.00;;;;;;5081744;28;20277;-79
2020/12/27 11:57:52;;;;;;;1.13;0.60;;;4.20;1.00;;;;;;5078896;28;20650;-74
2020/12/27 12:00:22;;;;;;;0.82;0.63;;;4.20;1.00;;;;;;5075353;28;20154;-74
2020/12/27 12:02:48;;;;;;;1.10;0.85;;;;;;;;;;5073450;28;20548;-74
2020/12/27 12:05:13;;;;;;;0.63;0.63;;;4.30;1.00;;;;;;5084428;28;20171;-74
2020/12/27 12:07:39;;;;;;;0.63;0.63;;;4.40;1.00;;;;;;5074959;28;20170;-74
2020/12/27 12:10:05;;;;;;;0.80;0.80;;;4.30;1.00;;;;;;5074761;28;20240;-74
2020/12/27 12:12:31;;;;;;;0.70;0.70;;;;;;;;;;5094118;28;20166;-73
2020/12/27 12:14:57;;;;;;;0.50;0.50;;;4.30;1.00;;;;;;5095070;28;20190;-74
2020/12/27 12:17:28;;;;;;;0.67;0.67;;;4.40;1.00;;;;;;5094701;28;20202;-74
2020/12/27 12:19:53;;;;;;;1.48;0.70;;;4.40;1.00;;;;;;5086823;28;20473;-74
2020/12/27 12:22:22;;;;;;;4.13;0.70;;;4.40;1.00;;;;;;5094792;28;20206;-74
2020/12/27 12:24:58;;;;;;;0.60;0.60;;;4.40;1.00;;;;;;5079935;28;20167;-74
2020/12/27 12:27:24;;;;;;;2.72;0.70;;;4.50;1.00;;;;;;5074763;28;20158;-74
2020/12/27 12:29:49;;;;;;;0.70;0.70;;;4.40;1.00;;;;;;5082149;28;20568;-74
2020/12/27 12:32:15;;;;;;;0.90;0.60;;;;;;;;;;5093484;28;20170;-73
2020/12/27 12:34:41;;;;;;;0.60;0.60;;;;;;;;;;5074273;28;20175;-74
2020/12/27 12:37:10;;;;;;;0.60;0.60;;;;;;;;;;5082818;28;20186;-75
2020/12/27 12:39:40;;;;;;;0.70;0.70;;;4.50;1.00;;;;;;5093830;28;20190;-74
2020/12/27 12:42:10;;;;;;;2.50;0.65;;;4.50;1.00;;;;;;5077702;28;20195;-75
2020/12/27 12:45:15;;;;;;;0.85;0.68;;;4.50;1.00;;;;;;5074787;28;20174;-78
2020/12/27 12:47:58;;;;;;;0.57;0.57;;;4.50;1.00;;;;;;5074141;28;20174;-79
2020/12/27 12:53:45;;;;;;;0.57;0.57;;;4.50;1.00;;;;;;5076048;28;20198;-78
2020/12/27 12:59:32;;;;;;;0.57;0.50;;;4.60;1.00;;;;;;5078769;28;20664;-78
2020/12/27 13:05:20;;;;;;;0.70;0.70;;;4.60;1.00;;;;;;5073750;28;20193;-79
2020/12/27 13:07:46;;;;;;;0.80;0.60;;;4.70;1.00;;;;;;5073808;28;20155;-76
2020/12/27 13:10:11;;;;;;;0.40;0.40;;;4.70;1.00;;;;;;5073752;28;20241;-75
2020/12/27 13:13:04;;;;;;;0.97;0.57;;;4.80;1.00;;;;;;5074885;28;20467;-77
2020/12/27 13:15:34;;;;;;;0.60;0.60;;;4.80;1.00;;;;;;5073781;28;20289;-78
2020/12/27 13:21:21;;;;;;;1.40;0.88;;;4.80;1.00;;;;;;5093939;28;20196;-78
2020/12/27 13:28:03;;;;;;;0.80;0.80;;;4.90;1.00;;;;;;5074633;28;20158;-78
2020/12/27 13:30:29;;;;;;;0.40;0.40;;;5.00;1.00;;;;;;5074927;28;20206;-75
2020/12/27 13:32:58;;;;;;;0.80;0.60;;;5.00;1.00;;;;;;5076886;28;20216;-75
2020/12/27 13:35:28;;;;;;;0.70;0.65;;;5.00;1.00;;;;;;5084698;28;20551;-75
2020/12/27 13:38:21;;;;;;;3.88;0.60;;;5.00;1.00;;;;;;5073702;28;20572;-75
2020/12/27 13:40:52;;;;;;;0.50;0.50;;;5.10;1.00;;;;;;5073376;28;20159;-75
2020/12/27 13:46:39;;;;;;;0.82;0.70;;;5.20;1.00;;;;;;5073420;28;20256;-77
2020/12/27 13:55:48;;;;;;;0.60;0.52;;;5.20;1.00;;;;;;5083341;28;20174;-77
2020/12/27 13:58:14;;;;;;;0.70;0.60;;;5.20;1.00;;;;;;5073276;28;20547;-77
2020/12/27 14:00:58;;;;;;;0.50;0.50;;;5.30;1.00;;;;;;5073199;28;20209;-78
2020/12/27 14:03:40;;;;;;;0.50;0.50;;;5.30;1.00;;;;;;5081743;28;20189;-77
2020/12/27 14:06:10;;;;;;;1.15;0.70;;;5.30;1.00;;;;;;5096898;28;20161;-77
2020/12/27 14:09:16;;;;;;;0.60;0.60;;;5.30;1.00;;;;;;5094914;28;20167;-77
2020/12/27 14:12:27;;;;;;;0.40;0.40;;;5.40;1.00;;;;;;5093646;28;20178;-77
2020/12/27 14:14:53;;;;;;;0.47;0.47;;;5.40;1.00;;;;;;5097804;28;20207;-75
2020/12/27 14:17:19;;;;;;;0.73;0.57;;;5.40;1.00;;;;;;5097262;28;20170;-74
2020/12/27 14:19:58;;;;;;;0.80;0.80;;;5.50;1.00;;;;;;5078277;28;20421;-75
2020/12/27 14:22:24;;;;;;;4.77;0.70;;;5.50;1.00;;;;;;5076668;28;20768;-75
2020/12/27 14:24:50;;;;;;;0.70;0.60;;;5.50;1.00;;;;;;5091553;28;21056;-75
2020/12/27 14:27:16;;;;;;;1.50;0.60;;;5.50;1.00;;;;;;5096936;28;20412;-75
2020/12/27 14:29:46;;;;;;;0.80;0.80;;;5.50;1.00;;;;;;5097255;28;20237;-78
2020/12/27 14:35:34;;;;;;;0.70;0.70;;;5.70;1.00;;;;;;5078780;28;20439;-79
2020/12/27 14:38:00;;;;;;;0.90;0.53;;;5.70;1.00;;;;;;5076562;28;20506;-79
2020/12/27 14:40:25;;;;;;;0.70;0.63;;;5.70;1.00;;;;;;5076255;28;20481;-79
2020/12/27 14:42:52;;;;;;;4.40;0.80;;;5.80;1.00;;;;;;5077499;28;20230;-78
2020/12/27 14:45:52;;;;;;;4.80;0.60;;;5.90;1.00;;;;;;5077382;28;20606;-79
2020/12/27 14:51:46;;;;;;;1.07;0.70;;;5.90;1.00;;;;;;5090461;28;20454;-74
2020/12/27 14:54:16;;;;;;;3.47;0.60;;;5.90;1.00;;;;;;5092118;28;20888;-74
2020/12/27 14:56:42;;;;;;;2.03;1.10;;;5.90;1.00;;;;;;5082633;28;20425;-74
2020/12/27 14:59:07;;;;;;;0.87;0.80;;;5.80;1.00;;;;;;5086157;28;20752;-74
2020/12/27 15:01:40;;;;;;;1.30;1.13;;;5.80;1.00;;;;;;5086150;28;20529;-74
2020/12/27 15:04:06;;;;;;;0.67;0.63;;;5.80;1.00;;;;;;5095409;28;20180;-74
2020/12/27 15:06:32;;;;;;;1.00;1.00;;;5.80;1.00;;;;;;5089507;28;20422;-74
2020/12/27 15:08:58;;;;;;;0.97;0.97;;;5.80;1.00;;;;;;5094773;28;20159;-73
2020/12/27 15:11:24;;;;;;;0.93;0.93;;;5.70;1.00;;;;;;5075872;28;20189;-74
2020/12/27 15:13:52;;;;;;;1.23;1.00;;;5.60;1.00;;;;;;5075901;28;20438;-80
2020/12/27 15:16:22;;;;;;;0.90;0.90;;;5.60;1.00;;;;;;5079986;28;20880;-75
2020/12/27 15:18:48;;;;;;;1.17;1.00;;;5.60;1.00;;;;;;5091248;28;20540;-73
2020/12/27 15:21:33;;;;;;;1.07;0.90;;;5.50;1.00;;;;;;5091217;28;20495;-75
2020/12/27 15:24:00;;;;;;;1.13;0.90;;;5.40;1.00;;;;;;5084326;28;20175;-76
2020/12/27 15:26:26;;;;;;;1.00;1.00;;;5.40;1.00;;;;;;5090712;28;20466;-74
2020/12/27 15:28:58;;;;;;;1.47;1.20;;;5.20;1.00;;;;;;5086317;28;20409;-77
2020/12/27 15:31:34;;;;;;;2.57;1.37;;;5.20;1.00;;;;;;5078520;28;20804;-82
2020/12/27 15:34:04;;;;;;;1.27;1.17;;;5.20;1.00;;;;;;5095336;28;20408;-79
2020/12/27 15:36:44;;;;;;;1.38;1.30;;;5.20;1.00;;;;;;5095607;28;20404;-80
2020/12/27 15:39:16;;;;;;;1.93;1.03;;;5.20;1.00;;;;;;5095687;28;20203;-78
2020/12/27 15:41:46;;;;;;;1.03;0.93;;;5.20;1.00;;;;;;5095257;28;20436;-79
2020/12/27 15:44:34;;;;;;;1.30;1.20;;;5.20;1.00;;;;;;5079492;28;20959;-78
2020/12/27 15:47:22;;;;;;;1.17;1.00;;;5.30;1.00;;;;;;5075083;28;20167;-78
2020/12/27 15:49:48;;;;;;;1.83;1.20;;;5.20;1.00;;;;;;5082232;28;20167;-74
2020/12/27 15:52:13;;;;;;;1.27;1.17;;;5.20;1.00;;;;;;5086156;28;20435;-73
2020/12/27 15:54:39;;;;;;;1.73;1.23;;;5.10;1.00;;;;;;5088318;28;20754;-74
2020/12/27 15:57:05;;;;;;;1.30;1.20;;;5.10;1.00;;;;;;5086270;28;20680;-75
2020/12/27 16:02:52;;;;;;;1.67;1.00;;;5.20;1.00;;;;;;5074819;28;20997;-80
2020/12/27 16:08:40;;;;;;;1.20;1.10;;;5.10;1.00;;;;;;5076009;28;20293;-79
2020/12/27 16:11:10;;;;;;;1.10;1.00;;;5.10;1.00;;;;;;5093485;28;20223;-78
2020/12/27 16:17:34;;;;;;;2.90;1.13;;;5.10;1.00;;;;;;5089236;28;20224;-79
2020/12/27 16:23:21;;;;;;;0.90;0.90;;;5.10;1.00;;;;;;5094723;28;20197;-79
2020/12/27 16:29:22;;;;;;;0.90;0.90;;;5.10;1.00;;;;;;5074475;28;20155;-79
2020/12/27 16:31:48;;;;;;;2.17;1.00;;;5.20;1.00;;;;;;5074921;28;20547;-75
2020/12/27 16:34:22;;;;;;;1.17;1.07;;;5.10;1.00;;;;;;5092872;28;20166;-77
2020/12/27 16:36:55;;;;;;;1.55;1.15;;;5.10;1.00;;;;;;5094876;28;20177;-75
2020/12/27 16:39:21;;;;;;;1.23;1.13;;;5.10;1.00;;;;;;5094688;28;20227;-76
2020/12/27 16:41:46;;;;;;;1.47;1.23;;;5.00;1.00;;;;;;5090134;28;20593;-76
2020/12/27 16:44:22;;;;;;;1.10;1.10;;;5.00;1.00;;;;;;5074507;28;20251;-76
2020/12/27 16:50:16;;;;;;;2.17;1.40;;;5.10;1.00;;;;;;5094513;28;20157;-78
2020/12/27 16:53:33;;;;;;;2.05;1.40;;;5.10;1.00;;;;;;5087827;28;20178;-79
2020/12/27 16:56:06;;;;;;;1.30;0.95;;;5.10;1.00;;;;;;5089552;28;20184;-79
2020/12/27 17:02:04;;;;;;;3.08;1.35;;;5.10;1.00;;;;;;5082325;28;20209;-75
2020/12/27 17:04:40;;;;;;;1.40;1.08;;;5.10;1.00;;;;;;5074038;28;20258;-76
2020/12/27 17:07:10;;;;;;;2.38;1.33;;;5.10;1.00;;;;;;5074014;28;20185;-75
2020/12/27 17:09:35;;;;;;;2.25;1.45;;;5.10;1.00;;;;;;5073528;28;20675;-74
2020/12/27 17:12:02;;;;;;;1.33;1.23;;;5.10;1.00;;;;;;5074513;28;20178;-73
2020/12/27 17:14:28;;;;;;;4.10;1.95;;;5.10;1.00;;;;;;5075236;28;20190;-73
2020/12/27 17:16:57;;;;;;;2.00;1.30;;;5.10;1.00;;;;;;5075050;28;20179;-73
2020/12/27 17:19:24;;;;;;;1.30;1.17;;;5.10;1.00;;;;;;5073643;28;20179;-74
2020/12/27 17:21:51;;;;;;;1.13;1.00;;;5.10;1.00;;;;;;5073438;28;20449;-75
2020/12/27 17:24:16;;;;;;;2.22;1.35;;;5.20;1.00;;;;;;5086061;28;20477;-75
2020/12/27 17:26:43;;;;;;;1.27;1.00;;;5.20;1.00;;;;;;5073713;28;20173;-74
2020/12/27 17:29:09;;;;;;;1.40;1.30;;;5.20;1.00;;;;;;5088573;28;20649;-74
2020/12/27 17:31:35;;;;;;;1.70;0.90;;;;;;;;;;5073350;28;20425;-74
2020/12/27 17:34:01;;;;;;;1.70;1.10;;;5.20;1.00;;;;;;5073711;28;20163;-74
2020/12/27 17:36:45;;;;;;;1.33;1.23;;;5.20;1.00;;;;;;5091515;28;20189;-74
2020/12/27 17:39:16;;;;;;;1.30;1.20;;;5.30;1.00;;;;;;5095825;28;20175;-74
2020/12/27 17:41:42;;;;;;;1.13;1.13;;;5.30;1.00;;;;;;5097560;28;20621;-74
2020/12/27 17:44:10;;;;;;;0.97;0.80;;;5.40;1.00;;;;;;5084986;28;20178;-74
2020/12/27 17:46:36;;;;;;;1.67;1.20;;;5.40;1.00;;;;;;5095586;28;20507;-74
2020/12/27 17:49:04;;;;;;;1.10;0.90;;;5.40;1.00;;;;;;5095819;28;20489;-74
2020/12/27 17:51:29;;;;;;;0.95;0.95;;;5.40;1.00;;;;;;5077269;28;20182;-73
2020/12/27 17:53:55;;;;;;;1.07;0.90;;;5.50;1.00;;;;;;5087547;28;20182;-74
2020/12/27 17:56:22;;;;;;;0.80;0.80;;;;;;;;;;5089356;28;20249;-73
2020/12/27 17:58:50;;;;;;;1.00;1.00;;;5.60;1.00;;;;;;5097689;28;20151;-74
2020/12/27 18:01:25;;;;;;;0.90;0.70;;;5.60;1.00;;;;;;5081184;28;20769;-74
2020/12/27 18:03:52;;;;;;;1.15;0.85;;;5.70;1.00;;;;;;5077225;28;20420;-75
2020/12/27 18:06:19;;;;;;;0.60;0.60;;;5.70;1.00;;;;;;5077291;28;20235;-75
2020/12/27 18:08:45;;;;;;;0.70;0.70;;;5.80;1.00;;;;;;5075597;28;20441;-73
2020/12/27 18:11:43;;;;;;;1.53;0.93;;;6.00;1.00;;;;;;5077435;28;20222;-78
2020/12/27 18:14:22;;;;;;;1.10;0.70;;;6.10;1.00;;;;;;5080591;28;20451;-74
2020/12/27 18:16:52;;;;;;;0.80;0.80;;;6.10;1.00;;;;;;5084529;28;20416;-79
2020/12/27 18:19:22;;;;;;;1.13;0.70;;;6.10;1.00;;;;;;5095273;28;20504;-80
2020/12/27 18:25:51;;;;;;;0.77;0.77;;;6.10;1.00;;;;;;5089537;28;20385;-79
2020/12/27 18:28:22;;;;;;;1.70;0.80;;;6.00;1.00;;;;;;5076815;28;20381;-78